createdAt,value
2023-05-24T00:00:33.386Z,33.10
2023-05-24T00:03:05.319Z,33.10
2023-05-24T00:05:40.035Z,33.11
2023-05-24T00:08:11.612Z,33.10
2023-05-24T00:10:42.374Z,33.13
2023-05-24T00:13:13.110Z,33.10
2023-05-24T00:15:43.504Z,33.08
2023-05-24T00:18:13.876Z,33.10
2023-05-24T00:20:44.384Z,33.09
2023-05-24T00:23:15.138Z,33.11
2023-05-24T00:25:45.253Z,33.12
2023-05-24T00:28:15.594Z,33.13
2023-05-24T00:30:46.031Z,33.13
2023-05-24T00:33:16.441Z,33.15
2023-05-24T00:35:46.757Z,33.15
2023-05-24T00:38:17.301Z,33.16
2023-05-24T00:40:48.002Z,33.14
2023-05-24T00:43:19.162Z,33.14
2023-05-24T00:45:49.582Z,33.15
2023-05-24T00:48:20.055Z,33.18
2023-05-24T00:50:52.968Z,33.17
2023-05-24T00:53:24.250Z,33.21
2023-05-24T00:55:54.164Z,33.22
2023-05-24T00:58:29.544Z,33.24
2023-05-24T01:01:04.632Z,33.24
2023-05-24T01:03:36.283Z,33.26
2023-05-24T01:06:09.666Z,33.28
2023-05-24T01:08:42.669Z,33.25
2023-05-24T01:11:20.715Z,33.23
2023-05-24T01:13:56.498Z,33.29
2023-05-24T01:16:49.024Z,33.29
2023-05-24T01:19:37.776Z,33.33
2023-05-24T01:22:36.166Z,33.30
2023-05-24T01:25:13.515Z,33.30
2023-05-24T01:27:45.782Z,33.33
2023-05-24T01:30:16.900Z,33.29
2023-05-24T01:32:47.519Z,33.36
2023-05-24T01:35:17.890Z,33.33
2023-05-24T01:37:48.256Z,33.31
2023-05-24T01:40:19.244Z,33.36
2023-05-24T01:42:59.817Z,33.36
2023-05-24T01:45:36.539Z,33.37
2023-05-24T01:48:44.276Z,33.34
2023-05-24T01:51:18.626Z,33.35
2023-05-24T01:53:52.009Z,33.38
2023-05-24T01:56:24.321Z,33.38
2023-05-24T01:58:59.441Z,33.41
2023-05-24T02:01:30.540Z,33.40
2023-05-24T02:04:02.870Z,33.43
2023-05-24T02:06:33.260Z,33.42
2023-05-24T02:09:03.790Z,33.43
2023-05-24T02:11:34.021Z,33.44
2023-05-24T02:14:04.284Z,33.44
2023-05-24T02:16:35.650Z,33.45
2023-05-24T02:19:06.182Z,33.45
2023-05-24T02:21:36.327Z,33.49
2023-05-24T02:24:06.946Z,33.44
2023-05-24T02:26:37.317Z,33.48
2023-05-24T02:29:09.896Z,33.46
2023-05-24T02:31:41.415Z,33.45
2023-05-24T02:34:11.950Z,33.45
2023-05-24T02:36:42.329Z,33.49
2023-05-24T02:39:12.990Z,33.48
2023-05-24T02:41:43.655Z,33.48
2023-05-24T02:44:14.475Z,33.44
2023-05-24T02:46:44.942Z,33.49
2023-05-24T02:49:15.566Z,33.48
2023-05-24T02:51:46.302Z,33.49
2023-05-24T02:54:16.802Z,33.50
2023-05-24T02:56:47.312Z,33.53
2023-05-24T02:59:19.997Z,33.53
2023-05-24T03:01:51.652Z,33.57
2023-05-24T03:04:22.079Z,33.56
2023-05-24T03:06:52.415Z,33.58
2023-05-24T03:09:22.932Z,33.58
2023-05-24T03:11:55.270Z,33.59
2023-05-24T03:14:27.419Z,33.58
2023-05-24T03:16:59.595Z,33.58
2023-05-24T03:19:30.424Z,33.59
2023-05-24T03:22:01.033Z,33.60
2023-05-24T03:24:31.431Z,33.59
2023-05-24T03:27:05.006Z,33.60
2023-05-24T03:29:35.440Z,33.62
2023-05-24T03:32:06.706Z,33.61
2023-05-24T03:34:37.179Z,33.66
2023-05-24T03:37:08.101Z,33.64
2023-05-24T03:39:40.392Z,33.62
2023-05-24T03:42:36.959Z,33.66
2023-05-24T03:45:12.068Z,33.68
2023-05-24T03:47:42.572Z,33.67
2023-05-24T03:50:13.270Z,33.68
2023-05-24T03:52:44.829Z,33.66
2023-05-24T03:55:15.214Z,33.69
2023-05-24T03:57:45.634Z,33.66
2023-05-24T04:00:16.521Z,33.65
2023-05-24T04:02:50.789Z,33.70
2023-05-24T04:05:21.233Z,33.72
2023-05-24T04:07:51.681Z,33.69
2023-05-24T04:10:22.375Z,33.68
2023-05-24T04:12:53.068Z,33.71
2023-05-24T04:15:23.741Z,33.71
2023-05-24T04:17:57.985Z,33.70
2023-05-24T04:20:30.153Z,33.69
2023-05-24T04:23:01.358Z,33.65
2023-05-24T04:25:32.525Z,33.70
2023-05-24T04:28:07.558Z,33.68
2023-05-24T04:30:39.209Z,33.70
2023-05-24T04:33:10.709Z,33.72
2023-05-24T04:35:43.151Z,33.77
2023-05-24T04:38:16.187Z,33.72
2023-05-24T04:40:46.524Z,33.68
2023-05-24T04:43:17.009Z,33.69
2023-05-24T04:45:47.229Z,33.75
2023-05-24T04:48:17.745Z,33.78
2023-05-24T04:50:48.056Z,33.78
2023-05-24T04:53:18.538Z,33.75
2023-05-24T04:55:49.270Z,33.79
2023-05-24T04:58:20.227Z,33.80
2023-05-24T05:00:50.784Z,33.80
2023-05-24T05:03:21.343Z,33.81
2023-05-24T05:05:52.270Z,33.81
2023-05-24T05:08:23.144Z,33.86
2023-05-24T05:10:53.437Z,33.86
2023-05-24T05:13:23.908Z,33.85
2023-05-24T05:15:54.204Z,33.86
2023-05-24T05:18:24.663Z,33.88
2023-05-24T05:20:54.845Z,33.89
2023-05-24T05:23:25.181Z,33.90
2023-05-24T05:25:55.500Z,33.93
2023-05-24T05:28:25.856Z,34.00
2023-05-24T05:30:59.272Z,33.97
2023-05-24T05:33:29.617Z,33.97
2023-05-24T05:35:59.974Z,33.93
2023-05-24T05:38:30.257Z,33.95
2023-05-24T05:41:00.522Z,33.94
2023-05-24T05:43:31.516Z,33.97
2023-05-24T05:46:03.406Z,33.98
2023-05-24T05:48:33.768Z,34.00
2023-05-24T05:51:04.206Z,33.99
2023-05-24T05:53:37.066Z,34.04
2023-05-24T05:56:07.591Z,34.03
2023-05-24T05:58:37.877Z,34.04
2023-05-24T06:01:08.256Z,33.99
2023-05-24T06:03:38.915Z,33.96
2023-05-24T06:06:11.288Z,33.96
2023-05-24T06:08:43.205Z,33.97
2023-05-24T06:11:13.541Z,33.97
2023-05-24T06:13:43.937Z,33.94
2023-05-24T06:16:14.240Z,33.92
2023-05-24T06:18:57.172Z,33.99
2023-05-24T06:21:32.586Z,34.03
2023-05-24T06:24:04.856Z,33.97
2023-05-24T06:26:35.262Z,33.98
2023-05-24T06:29:05.560Z,33.98
2023-05-24T06:31:35.884Z,34.00
2023-05-24T06:34:06.392Z,34.00
2023-05-24T06:36:38.282Z,34.01
2023-05-24T06:39:08.615Z,34.02
2023-05-24T06:41:39.786Z,34.04
2023-05-24T06:44:10.071Z,34.06
2023-05-24T06:46:40.381Z,34.09
2023-05-24T06:49:11.007Z,34.08
2023-05-24T06:51:41.382Z,34.11
2023-05-24T06:54:13.021Z,34.10
2023-05-24T06:56:43.319Z,34.09
2023-05-24T06:59:13.678Z,34.10
2023-05-24T07:01:45.341Z,34.10
2023-05-24T07:04:16.030Z,34.10
2023-05-24T07:06:46.301Z,34.13
2023-05-24T07:09:16.787Z,34.17
2023-05-24T07:11:47.237Z,34.17
2023-05-24T07:14:17.870Z,34.16
2023-05-24T07:16:49.155Z,34.15
2023-05-24T07:19:19.679Z,34.18
2023-05-24T07:21:49.867Z,34.20
2023-05-24T07:24:20.360Z,34.19
2023-05-24T07:26:50.674Z,34.22
2023-05-24T07:29:21.113Z,34.22
2023-05-24T07:31:51.337Z,34.19
2023-05-24T07:34:24.064Z,34.22
2023-05-24T07:36:54.343Z,34.17
2023-05-24T07:39:25.729Z,34.22
2023-05-24T07:41:57.006Z,34.20
2023-05-24T07:44:27.439Z,34.21
2023-05-24T07:46:58.192Z,34.22
2023-05-24T07:49:28.693Z,34.23
2023-05-24T07:52:01.977Z,34.21
2023-05-24T07:54:32.307Z,34.22
2023-05-24T07:57:02.702Z,34.24
2023-05-24T07:59:33.098Z,34.25
2023-05-24T08:02:07.836Z,34.25
2023-05-24T08:04:38.297Z,34.28
2023-05-24T08:07:10.877Z,34.31
2023-05-24T08:09:41.427Z,34.35
2023-05-24T08:12:11.765Z,34.35
2023-05-24T08:14:42.052Z,34.30
2023-05-24T08:17:12.397Z,34.37
2023-05-24T08:19:42.701Z,34.39
2023-05-24T08:22:12.802Z,34.38
2023-05-24T08:24:43.228Z,34.36
2023-05-24T08:27:14.283Z,34.40
2023-05-24T08:29:44.559Z,34.45
2023-05-24T08:32:14.888Z,34.42
2023-05-24T08:34:45.116Z,34.44
2023-05-24T08:37:17.754Z,34.44
2023-05-24T08:39:48.277Z,34.42
2023-05-24T08:42:19.738Z,34.39
2023-05-24T08:45:07.444Z,34.36
2023-05-24T08:47:39.750Z,34.40
2023-05-24T08:50:11.124Z,34.41
2023-05-24T08:52:43.197Z,34.44
2023-05-24T08:55:14.023Z,34.42
2023-05-24T08:57:45.044Z,34.41
2023-05-24T09:00:16.317Z,34.42
2023-05-24T09:02:48.813Z,34.43
2023-05-24T09:05:19.784Z,34.46
2023-05-24T09:07:51.100Z,34.46
2023-05-24T09:10:26.903Z,34.46
2023-05-24T09:13:00.905Z,34.48
2023-05-24T09:15:31.794Z,34.44
2023-05-24T09:18:02.098Z,34.45
2023-05-24T09:20:33.502Z,34.46
2023-05-24T09:23:07.300Z,34.45
2023-05-24T09:25:37.802Z,34.50
2023-05-24T09:28:11.603Z,34.48
2023-05-24T09:30:42.198Z,34.46
2023-05-24T09:33:13.912Z,34.42
2023-05-24T09:35:48.864Z,34.42
2023-05-24T09:38:22.415Z,34.41
2023-05-24T09:41:10.690Z,34.41
2023-05-24T09:43:52.159Z,34.39
2023-05-24T09:46:22.774Z,34.45
2023-05-24T09:49:05.905Z,34.49
2023-05-24T09:51:41.673Z,34.52
2023-05-24T09:54:12.268Z,34.51
2023-05-24T09:56:43.078Z,34.54
2023-05-24T09:59:13.575Z,34.54
2023-05-24T10:01:44.081Z,34.56
2023-05-24T10:04:15.085Z,34.55
2023-05-24T10:06:46.388Z,34.56
2023-05-24T10:09:17.081Z,34.58
2023-05-24T10:11:48.333Z,34.59
2023-05-24T10:14:20.597Z,34.58
2023-05-24T10:16:50.929Z,34.60
2023-05-24T10:19:21.137Z,34.58
2023-05-24T10:21:52.583Z,34.58
2023-05-24T10:24:28.801Z,34.59
2023-05-24T10:27:01.235Z,34.62
2023-05-24T10:29:53.814Z,34.61
2023-05-24T10:32:27.012Z,34.62
2023-05-24T10:34:58.022Z,34.65
2023-05-24T10:37:32.613Z,34.61
2023-05-24T10:40:03.634Z,34.63
2023-05-24T10:42:35.661Z,34.65
2023-05-24T10:45:24.316Z,34.61
2023-05-24T10:47:55.820Z,34.64
2023-05-24T10:50:26.410Z,34.65
2023-05-24T10:53:15.539Z,34.64
2023-05-24T10:55:57.683Z,34.63
2023-05-24T10:58:48.644Z,34.60
2023-05-24T11:01:34.378Z,34.63
2023-05-24T11:04:21.699Z,34.58
2023-05-24T11:07:06.359Z,34.57
2023-05-24T11:09:37.329Z,34.57
2023-05-24T11:12:11.799Z,34.57
2023-05-24T11:14:42.861Z,34.56
2023-05-24T11:17:13.202Z,34.57
2023-05-24T11:19:55.230Z,34.54
2023-05-24T11:22:27.881Z,34.57
2023-05-24T11:25:00.293Z,34.53
2023-05-24T11:27:31.338Z,34.48
2023-05-24T11:30:02.158Z,34.44
2023-05-24T11:32:32.475Z,34.44
2023-05-24T11:35:03.250Z,34.44
2023-05-24T11:37:45.554Z,34.39
2023-05-24T11:40:18.654Z,34.40
2023-05-24T11:42:53.139Z,34.40
2023-05-24T11:45:24.418Z,34.38
2023-05-24T11:47:54.364Z,34.39
2023-05-24T11:50:28.815Z,34.33
2023-05-24T11:53:06.041Z,34.32
2023-05-24T11:55:37.455Z,34.36
2023-05-24T11:58:14.202Z,34.37
2023-05-24T12:00:45.864Z,34.28
2023-05-24T12:03:16.347Z,34.22
2023-05-24T12:05:47.584Z,34.19
2023-05-24T12:08:18.261Z,34.14
2023-05-24T12:10:51.163Z,34.12
2023-05-24T12:13:26.497Z,34.10
2023-05-24T12:15:58.386Z,34.06
2023-05-24T12:18:29.920Z,34.04
2023-05-24T12:21:00.503Z,34.06
2023-05-24T12:23:32.036Z,34.04
2023-05-24T12:26:02.946Z,34.02
2023-05-24T12:28:41.663Z,33.97
2023-05-24T12:31:12.422Z,33.99
2023-05-24T12:33:42.780Z,33.97
2023-05-24T12:36:13.989Z,33.90
2023-05-24T12:38:44.299Z,33.88
2023-05-24T13:04:48.953Z,33.24
2023-05-24T13:07:19.543Z,33.13
2023-05-24T13:09:49.956Z,33.16
2023-05-24T13:12:20.361Z,33.15
2023-05-24T13:14:52.865Z,33.15
2023-05-24T13:17:23.635Z,33.19
2023-05-24T13:19:54.376Z,33.25
2023-05-24T13:22:24.773Z,33.12
2023-05-24T13:24:55.699Z,32.96
2023-05-24T13:27:26.631Z,33.06
2023-05-24T13:30:00.928Z,33.06
2023-05-24T13:32:32.136Z,33.16
2023-05-24T13:35:03.239Z,33.17
2023-05-24T13:37:35.417Z,33.15
2023-05-24T13:40:06.772Z,33.08
2023-05-24T13:42:37.597Z,33.10
2023-05-24T13:45:08.891Z,33.06
2023-05-24T13:47:41.226Z,33.16
2023-05-24T13:50:12.593Z,33.16
2023-05-24T13:52:42.999Z,33.21
2023-05-24T13:55:13.497Z,33.25
2023-05-24T13:57:51.676Z,33.30
2023-05-24T14:00:23.067Z,33.33
2023-05-24T14:02:54.218Z,33.37
2023-05-24T14:05:27.786Z,33.30
2023-05-24T14:08:00.526Z,33.33
2023-05-24T14:10:31.062Z,33.25
2023-05-24T14:13:20.587Z,33.24
2023-05-24T14:15:52.162Z,33.26
2023-05-24T14:18:22.873Z,33.29
2023-05-24T14:20:53.537Z,33.37
2023-05-24T14:23:24.107Z,33.37
2023-05-24T14:25:54.677Z,33.36
2023-05-24T14:28:25.177Z,33.38
2023-05-24T14:30:55.523Z,33.35
2023-05-24T14:33:27.212Z,33.36
2023-05-24T14:35:57.712Z,33.34
2023-05-24T14:38:28.327Z,33.47
2023-05-24T14:41:00.567Z,33.60
2023-05-24T14:43:31.111Z,33.63
2023-05-24T14:46:01.635Z,33.67
2023-05-24T14:48:32.143Z,33.64
2023-05-24T14:51:02.405Z,33.64
2023-05-24T14:53:32.788Z,33.64
2023-05-24T14:56:03.622Z,33.64
2023-05-24T14:58:33.958Z,33.68
2023-05-24T15:01:05.525Z,33.67
2023-05-24T15:03:36.032Z,33.69
2023-05-24T15:06:08.004Z,33.66
2023-05-24T15:08:38.395Z,33.64
2023-05-24T15:11:09.051Z,33.60
2023-05-24T15:13:40.862Z,33.65
2023-05-24T15:16:11.664Z,33.66
2023-05-24T15:18:42.068Z,33.61
2023-05-24T15:21:12.560Z,33.64
2023-05-24T15:23:42.823Z,33.62
2023-05-24T15:26:13.588Z,33.66
2023-05-24T15:28:43.841Z,33.62
2023-05-24T15:31:14.206Z,33.62
2023-05-24T15:33:44.633Z,33.63
2023-05-24T15:36:16.793Z,33.62
2023-05-24T15:38:47.349Z,33.67
2023-05-24T15:41:17.880Z,33.64
2023-05-24T15:43:48.398Z,33.66
2023-05-24T15:46:19.031Z,33.73
2023-05-24T15:48:49.678Z,33.73
2023-05-24T15:51:53.600Z,33.73
2023-05-24T15:54:10.312Z,33.74
2023-05-24T15:56:40.617Z,33.77
2023-05-24T15:59:10.921Z,33.76
2023-05-24T16:01:41.344Z,33.76
2023-05-24T16:04:11.831Z,33.76
2023-05-24T16:06:42.232Z,33.78
2023-05-24T16:09:12.540Z,33.75
2023-05-24T16:11:43.277Z,33.76
2023-05-24T16:14:13.884Z,33.78
2023-05-24T16:16:45.096Z,33.78
2023-05-24T16:19:15.667Z,33.79
2023-05-24T16:21:45.969Z,33.76
2023-05-24T16:24:16.321Z,33.79
2023-05-24T16:26:46.688Z,33.78
2023-05-24T16:29:19.150Z,33.77
2023-05-24T16:31:49.645Z,33.75
2023-05-24T16:34:19.890Z,33.75
2023-05-24T16:36:50.321Z,33.76
2023-05-24T16:39:20.762Z,33.77
2023-05-24T16:41:50.994Z,33.75
2023-05-24T16:44:21.412Z,33.74
2023-05-24T16:46:51.705Z,33.75
2023-05-24T16:49:22.074Z,33.78
2023-05-24T16:51:52.250Z,33.76
2023-05-24T16:54:22.637Z,33.76
2023-05-24T16:56:56.176Z,33.77
2023-05-24T16:59:26.434Z,33.77
2023-05-24T17:01:56.857Z,33.79
2023-05-24T17:04:27.424Z,33.81
2023-05-24T17:06:57.766Z,33.80
2023-05-24T17:09:28.184Z,33.80
2023-05-24T17:11:59.619Z,33.82
2023-05-24T17:14:30.545Z,33.84
2023-05-24T17:17:01.071Z,33.83
2023-05-24T17:19:32.395Z,33.84
2023-05-24T17:22:02.859Z,33.85
2023-05-24T17:24:33.276Z,33.86
2023-05-24T17:27:04.418Z,33.82
2023-05-24T17:29:38.557Z,33.81
2023-05-24T17:32:09.103Z,33.81
2023-05-24T17:34:39.644Z,33.81
2023-05-24T17:37:10.047Z,33.78
2023-05-24T17:39:41.233Z,33.79
2023-05-24T17:42:12.454Z,33.78
2023-05-24T17:44:43.992Z,33.73
2023-05-24T17:47:14.344Z,33.74
2023-05-24T17:49:44.486Z,33.67
2023-05-24T17:52:16.981Z,33.68
2023-05-24T17:54:47.343Z,33.67
2023-05-24T17:57:17.496Z,33.67
2023-05-24T17:59:48.377Z,33.65
2023-05-24T18:02:18.642Z,33.62
2023-05-24T18:04:48.974Z,33.62
2023-05-24T18:07:20.847Z,33.60
2023-05-24T18:09:51.502Z,33.62
2023-05-24T18:12:22.035Z,33.61
2023-05-24T18:14:52.776Z,33.63
2023-05-24T18:17:23.486Z,33.59
2023-05-24T18:19:54.018Z,33.63
2023-05-24T18:22:24.382Z,33.65
2023-05-24T18:24:54.683Z,33.64
2023-05-24T18:27:25.052Z,33.62
2023-05-24T18:29:55.497Z,33.61
2023-05-24T18:32:25.972Z,33.58
2023-05-24T18:34:57.415Z,33.57
2023-05-24T18:37:27.309Z,33.58
2023-05-24T18:39:57.527Z,33.55
2023-05-24T18:42:28.104Z,33.56
2023-05-24T18:44:58.844Z,33.54
2023-05-24T18:47:30.145Z,33.54
2023-05-24T18:50:01.988Z,33.54
2023-05-24T18:52:32.333Z,33.53
2023-05-24T18:55:02.797Z,33.51
2023-05-24T18:57:33.780Z,33.53
2023-05-24T19:00:04.085Z,33.52
2023-05-24T19:02:34.534Z,33.52
2023-05-24T19:05:05.459Z,33.50
2023-05-24T19:07:36.998Z,33.49
2023-05-24T19:10:07.843Z,33.48
2023-05-24T19:12:38.097Z,33.46
2023-05-24T19:15:09.626Z,33.44
2023-05-24T19:17:39.833Z,33.44
2023-05-24T19:20:10.575Z,33.41
2023-05-24T19:22:40.949Z,33.40
2023-05-24T19:25:11.553Z,33.44
2023-05-24T19:27:57.854Z,33.42
2023-05-24T19:30:29.582Z,33.40
2023-05-24T19:33:00.069Z,33.35
2023-05-24T19:35:30.536Z,33.37
2023-05-24T19:38:00.877Z,33.36
2023-05-24T19:40:31.242Z,33.37
2023-05-24T19:43:01.717Z,33.37
2023-05-24T19:45:31.947Z,33.36
2023-05-24T19:48:02.653Z,33.35
2023-05-24T19:50:33.475Z,33.39
2023-05-24T19:53:03.991Z,33.35
2023-05-24T19:55:34.928Z,33.36
2023-05-24T19:58:05.220Z,33.37
2023-05-24T20:00:35.470Z,33.38
2023-05-24T20:03:06.427Z,33.34
2023-05-24T20:05:36.745Z,33.34
2023-05-24T20:08:09.091Z,33.30
2023-05-24T20:10:41.345Z,33.33
2023-05-24T20:13:12.872Z,33.34
2023-05-24T20:15:43.521Z,33.35
2023-05-24T20:18:13.996Z,33.34
2023-05-24T20:20:44.432Z,33.38
2023-05-24T20:23:14.618Z,33.34
2023-05-24T20:25:46.521Z,33.37
2023-05-24T20:28:29.604Z,33.34
2023-05-24T20:31:01.366Z,33.36
2023-05-24T20:33:31.753Z,33.36
2023-05-24T20:36:02.142Z,33.36
2023-05-24T20:38:32.699Z,33.32
2023-05-24T20:41:02.881Z,33.33
2023-05-24T20:43:33.051Z,33.36
2023-05-24T20:46:05.604Z,33.34
2023-05-24T20:48:36.046Z,33.32
2023-05-24T20:51:06.466Z,33.32
2023-05-24T20:53:36.998Z,33.30
2023-05-24T20:56:07.450Z,33.30
2023-05-24T20:58:37.868Z,33.30
2023-05-24T21:01:08.642Z,33.27
2023-05-24T21:03:39.230Z,33.31
2023-05-24T21:06:09.791Z,33.30
2023-05-24T21:08:40.940Z,33.31
2023-05-24T21:11:10.888Z,33.27
2023-05-24T21:13:41.191Z,33.26
2023-05-24T21:16:11.644Z,33.27
2023-05-24T21:18:42.032Z,33.28
2023-05-24T21:21:13.399Z,33.27
2023-05-24T21:23:44.111Z,33.26
2023-05-24T21:26:14.272Z,33.27
2023-05-24T21:28:44.371Z,33.25
2023-05-24T21:31:15.121Z,33.28
2023-05-24T21:33:48.187Z,33.29
2023-05-24T21:36:18.534Z,33.27
2023-05-24T21:38:49.475Z,33.22
2023-05-24T21:41:19.772Z,33.29
2023-05-24T21:43:49.927Z,33.30
2023-05-24T21:46:20.301Z,33.27
2023-05-24T21:48:51.145Z,33.25
2023-05-24T21:51:21.479Z,33.27
2023-05-24T21:53:51.904Z,33.26
2023-05-24T21:56:22.291Z,33.25
2023-05-24T21:58:52.793Z,33.24
2023-05-24T22:01:23.480Z,33.25
2023-05-24T22:03:55.138Z,33.22
2023-05-24T22:06:26.365Z,33.23
2023-05-24T22:08:57.990Z,33.26
2023-05-24T22:11:29.050Z,33.26
2023-05-24T22:13:59.261Z,33.23
2023-05-24T22:16:29.727Z,33.24
2023-05-24T22:19:00.276Z,33.27
2023-05-24T22:21:30.645Z,33.25
2023-05-24T22:24:00.725Z,33.28
2023-05-24T22:26:30.921Z,33.26
2023-05-24T22:29:06.730Z,33.23
2023-05-24T22:31:37.291Z,33.20
2023-05-24T22:34:08.542Z,33.25
2023-05-24T22:36:40.257Z,33.27
2023-05-24T22:39:12.016Z,33.27
2023-05-24T22:41:42.383Z,33.24
2023-05-24T22:44:13.614Z,33.22
2023-05-24T22:47:38.687Z,33.25
2023-05-24T22:50:10.327Z,33.23
2023-05-24T22:52:44.793Z,33.23
2023-05-24T22:55:15.399Z,33.17
2023-05-24T22:57:45.614Z,33.14
2023-05-24T23:00:17.538Z,33.12
2023-05-24T23:02:49.296Z,33.13
2023-05-24T23:05:19.874Z,33.12
2023-05-24T23:07:51.755Z,33.09
2023-05-24T23:10:22.173Z,33.12
2023-05-24T23:12:52.891Z,33.10
2023-05-24T23:15:23.299Z,33.11
2023-05-24T23:17:55.200Z,33.09
2023-05-24T23:20:25.954Z,33.13
2023-05-24T23:22:56.471Z,33.15
2023-05-24T23:25:26.717Z,33.19
2023-05-24T23:27:57.298Z,33.15
2023-05-24T23:30:27.930Z,33.17
2023-05-24T23:33:00.192Z,33.20
2023-05-24T23:35:30.688Z,33.10
2023-05-24T23:38:01.216Z,33.07
2023-05-24T23:40:32.490Z,33.10
2023-05-24T23:43:02.460Z,33.14
2023-05-24T23:45:33.075Z,33.13
2023-05-24T23:48:03.819Z,33.10
2023-05-24T23:50:42.864Z,33.09
2023-05-24T23:53:20.784Z,33.12
2023-05-24T23:55:51.140Z,33.13
2023-05-24T23:58:21.671Z,33.13
